createdAt,value
2017-11-14T00:00:00.737Z,3.70
2017-11-14T00:02:28.263Z,3.70
2017-11-14T00:04:55.764Z,3.60
2017-11-14T00:07:23.291Z,3.50
2017-11-14T00:09:50.801Z,3.60
2017-11-14T00:12:19.089Z,3.80
2017-11-14T00:14:46.605Z,3.80
2017-11-14T00:17:14.134Z,3.90
2017-11-14T00:19:41.651Z,3.90
2017-11-14T00:22:09.940Z,4.00
2017-11-14T00:24:37.448Z,4.00
2017-11-14T00:27:04.976Z,4.10
2017-11-14T00:29:32.529Z,3.90
2017-11-14T00:32:00.061Z,3.70
2017-11-14T00:34:28.340Z,3.60
2017-11-14T00:36:55.848Z,3.60
2017-11-14T00:39:23.372Z,3.70
2017-11-14T00:41:50.884Z,3.80
2017-11-14T00:44:18.427Z,3.80
2017-11-14T00:46:45.931Z,3.80
2017-11-14T00:49:13.461Z,3.80
2017-11-14T00:51:40.965Z,3.90
2017-11-14T00:54:08.489Z,4.00
2017-11-14T00:56:36.760Z,3.90
2017-11-14T00:59:05.053Z,3.80
2017-11-14T01:01:33.327Z,3.80
2017-11-14T01:04:01.617Z,3.70
2017-11-14T01:06:29.133Z,3.70
2017-11-14T01:08:56.660Z,3.70
2017-11-14T01:11:24.171Z,3.80
2017-11-14T01:13:52.484Z,4.00
2017-11-14T01:16:20.004Z,4.00
2017-11-14T01:18:48.295Z,4.10
2017-11-14T01:21:15.805Z,4.10
2017-11-14T01:23:43.328Z,4.10
2017-11-14T01:26:10.831Z,4.20
2017-11-14T01:28:38.376Z,4.20
2017-11-14T01:31:06.653Z,4.30
2017-11-14T01:33:34.180Z,4.30
2017-11-14T01:36:01.705Z,4.20
2017-11-14T01:38:29.976Z,4.30
2017-11-14T01:40:58.264Z,4.30
2017-11-14T01:43:26.527Z,4.30
2017-11-14T01:45:54.817Z,4.30
2017-11-14T01:48:23.083Z,4.30
2017-11-14T01:50:51.372Z,4.30
2017-11-14T01:53:18.881Z,4.20
2017-11-14T01:55:47.172Z,4.10
2017-11-14T01:58:15.460Z,4.20
2017-11-14T02:00:47.936Z,4.20
2017-11-14T02:03:16.213Z,4.20
2017-11-14T02:05:44.503Z,4.20
2017-11-14T02:08:12.776Z,4.20
2017-11-14T02:10:41.116Z,4.30
2017-11-14T02:13:08.628Z,4.30
2017-11-14T02:15:36.152Z,4.30
2017-11-14T02:18:03.667Z,4.30
2017-11-14T02:20:31.188Z,4.40
2017-11-14T02:22:59.460Z,4.50
2017-11-14T02:25:27.748Z,4.50
2017-11-14T02:27:55.261Z,4.50
2017-11-14T02:30:22.800Z,4.60
2017-11-14T02:32:50.312Z,4.60
2017-11-14T02:35:18.604Z,4.70
2017-11-14T02:37:46.111Z,4.70
2017-11-14T02:40:13.638Z,4.70
2017-11-14T02:42:41.166Z,4.70
2017-11-14T02:45:09.440Z,4.70
2017-11-14T02:47:37.729Z,4.80
2017-11-14T02:50:05.237Z,4.70
2017-11-14T02:52:32.763Z,4.80
2017-11-14T02:55:00.272Z,4.80
2017-11-14T02:57:27.793Z,4.80
2017-11-14T02:59:55.307Z,4.80
2017-11-14T03:02:22.840Z,4.80
2017-11-14T03:04:50.348Z,4.70
2017-11-14T03:07:17.871Z,4.60
2017-11-14T03:09:46.144Z,4.50
2017-11-14T03:12:14.436Z,4.50
2017-11-14T03:14:41.943Z,4.50
2017-11-14T03:17:10.232Z,4.50
2017-11-14T03:19:37.743Z,4.50
2017-11-14T03:22:05.288Z,4.50
2017-11-14T03:24:32.797Z,4.60
2017-11-14T03:27:00.313Z,4.50
2017-11-14T03:29:27.829Z,4.50
2017-11-14T03:31:55.354Z,4.40
2017-11-14T03:34:22.861Z,4.40
2017-11-14T03:36:51.132Z,4.40
2017-11-14T03:39:19.421Z,4.40
2017-11-14T03:41:47.701Z,4.40
2017-11-14T03:44:15.988Z,4.40
2017-11-14T03:46:43.501Z,4.40
2017-11-14T03:49:11.033Z,4.40
2017-11-14T03:51:38.577Z,4.40
2017-11-14T03:54:06.105Z,4.30
2017-11-14T03:56:34.372Z,4.40
2017-11-14T03:59:02.664Z,4.40
2017-11-14T04:01:30.936Z,4.30
2017-11-14T04:03:59.230Z,4.30
2017-11-14T04:06:26.750Z,4.30
2017-11-14T04:08:55.053Z,4.30
2017-11-14T04:11:22.565Z,4.30
2017-11-14T04:13:50.088Z,4.20
2017-11-14T04:16:17.592Z,4.00
2017-11-14T04:18:45.120Z,3.90
2017-11-14T04:21:12.635Z,3.90
2017-11-14T04:23:40.924Z,4.00
2017-11-14T04:26:08.428Z,4.00
2017-11-14T04:28:35.932Z,4.00
2017-11-14T04:31:03.457Z,4.00
2017-11-14T04:33:30.966Z,4.00
2017-11-14T04:35:58.500Z,4.00
2017-11-14T04:38:26.768Z,3.80
2017-11-14T04:40:55.080Z,3.80
2017-11-14T04:43:22.592Z,3.80
2017-11-14T04:45:50.111Z,3.80
2017-11-14T04:48:17.615Z,3.70
2017-11-14T04:50:45.905Z,3.70
2017-11-14T04:53:14.178Z,3.70
2017-11-14T04:55:42.472Z,3.70
2017-11-14T04:58:10.045Z,3.70
2017-11-14T05:00:37.572Z,3.70
2017-11-14T05:03:05.845Z,3.60
2017-11-14T05:05:34.140Z,3.70
2017-11-14T05:08:01.668Z,3.60
2017-11-14T05:10:29.960Z,3.70
2017-11-14T05:12:58.232Z,3.70
2017-11-14T05:15:26.520Z,3.60
2017-11-14T05:17:54.024Z,3.60
2017-11-14T05:20:22.299Z,3.60
2017-11-14T05:22:49.829Z,3.50
2017-11-14T05:25:17.359Z,3.60
2017-11-14T05:27:44.896Z,3.60
2017-11-14T05:30:12.405Z,3.50
2017-11-14T05:32:39.937Z,3.50
2017-11-14T05:35:07.460Z,3.50
2017-11-14T05:37:34.987Z,3.50
2017-11-14T05:40:02.503Z,3.50
2017-11-14T05:42:30.793Z,3.60
2017-11-14T05:44:58.330Z,3.60
2017-11-14T05:47:26.624Z,3.60
2017-11-14T05:49:54.893Z,3.60
2017-11-14T05:52:23.168Z,3.50
2017-11-14T05:54:51.456Z,3.40
2017-11-14T05:57:18.964Z,3.40
2017-11-14T05:59:46.488Z,3.40
2017-11-14T06:02:14.000Z,3.40
2017-11-14T06:04:41.526Z,3.40
2017-11-14T06:07:09.800Z,3.40
2017-11-14T06:09:37.323Z,3.40
2017-11-14T06:12:04.888Z,3.40
2017-11-14T06:14:32.458Z,3.50
2017-11-14T06:17:00.001Z,3.60
2017-11-14T06:19:27.524Z,3.60
2017-11-14T06:21:55.030Z,3.70
2017-11-14T06:24:22.694Z,3.70
2017-11-14T06:26:50.200Z,3.70
2017-11-14T06:29:17.705Z,3.80
2017-11-14T06:31:45.228Z,3.90
2017-11-14T06:34:13.498Z,4.10
2017-11-14T06:36:41.791Z,4.10
2017-11-14T06:39:10.066Z,4.00
2017-11-14T06:41:37.605Z,4.00
2017-11-14T06:44:05.112Z,3.90
2017-11-14T06:46:32.637Z,4.00
2017-11-14T06:49:00.909Z,4.00
2017-11-14T06:51:29.200Z,4.00
2017-11-14T06:53:56.712Z,4.00
2017-11-14T06:56:24.236Z,4.10
2017-11-14T06:58:51.748Z,4.20
2017-11-14T07:01:19.285Z,4.20
2017-11-14T07:03:46.795Z,4.20
2017-11-14T07:06:14.330Z,4.20
2017-11-14T07:08:42.600Z,4.20
2017-11-14T07:11:10.125Z,4.20
2017-11-14T07:13:37.633Z,4.20
2017-11-14T07:16:05.933Z,4.20
2017-11-14T07:18:33.441Z,4.20
2017-11-14T07:21:00.969Z,4.00
2017-11-14T07:23:28.480Z,4.00
2017-11-14T07:25:56.774Z,4.20
2017-11-14T07:28:24.336Z,4.10
2017-11-14T07:30:51.876Z,4.10
2017-11-14T07:33:20.148Z,4.00
2017-11-14T07:35:48.454Z,4.00
2017-11-14T07:38:16.016Z,4.00
2017-11-14T07:40:44.077Z,4.20
2017-11-14T07:43:11.600Z,4.20
2017-11-14T07:45:39.111Z,4.30
2017-11-14T07:48:06.652Z,4.40
2017-11-14T07:50:34.213Z,4.50
2017-11-14T07:53:01.743Z,4.50
2017-11-14T07:55:30.061Z,4.60
2017-11-14T07:57:57.598Z,4.50
2017-11-14T08:00:25.103Z,4.40
2017-11-14T08:02:52.745Z,4.40
2017-11-14T08:05:20.253Z,4.50
2017-11-14T08:07:48.547Z,4.60
2017-11-14T08:10:16.052Z,4.60
2017-11-14T08:12:43.668Z,4.60
2017-11-14T08:15:11.578Z,4.70
2017-11-14T08:17:39.119Z,4.70
2017-11-14T08:20:06.640Z,4.80
2017-11-14T08:22:34.148Z,4.80
2017-11-14T08:25:01.674Z,4.90
2017-11-14T08:27:29.224Z,4.90
2017-11-14T08:29:56.789Z,5.00
2017-11-14T08:32:24.349Z,5.00
2017-11-14T08:34:51.899Z,5.10
2017-11-14T08:37:19.436Z,5.10
2017-11-14T08:39:47.731Z,4.90
2017-11-14T08:42:16.124Z,4.90
2017-11-14T08:44:43.671Z,4.90
2017-11-14T08:47:11.184Z,4.90
2017-11-14T08:49:38.708Z,4.80
2017-11-14T08:52:06.265Z,4.80
2017-11-14T08:54:33.812Z,4.90
2017-11-14T08:57:01.317Z,4.80
2017-11-14T08:59:28.923Z,4.80
2017-11-14T09:01:56.437Z,4.90
2017-11-14T09:04:23.943Z,4.80
2017-11-14T09:06:51.504Z,4.90
2017-11-14T09:09:19.003Z,5.00
2017-11-14T09:11:46.629Z,4.80
2017-11-14T09:14:14.137Z,4.90
2017-11-14T09:16:41.731Z,4.90
2017-11-14T09:19:09.304Z,4.90
2017-11-14T09:21:36.828Z,5.00
2017-11-14T09:24:05.132Z,5.20
2017-11-14T09:26:32.697Z,5.20
2017-11-14T09:29:00.253Z,5.40
2017-11-14T09:31:27.784Z,5.40
2017-11-14T09:33:56.052Z,5.70
2017-11-14T09:36:23.645Z,5.60
2017-11-14T09:38:51.205Z,5.70
2017-11-14T09:41:18.771Z,5.70
2017-11-14T09:43:46.317Z,5.60
2017-11-14T09:46:13.841Z,5.70
2017-11-14T09:48:42.112Z,5.70
2017-11-14T09:51:10.537Z,5.60
2017-11-14T09:53:38.049Z,5.90
2017-11-14T09:56:05.571Z,5.90
2017-11-14T09:58:33.107Z,6.00
2017-11-14T10:01:00.672Z,5.90
2017-11-14T10:03:28.228Z,5.90
2017-11-14T10:05:55.824Z,5.90
2017-11-14T10:08:23.331Z,6.00
2017-11-14T10:10:51.603Z,6.10
2017-11-14T10:13:20.001Z,6.20
2017-11-14T10:15:47.556Z,6.20
2017-11-14T10:18:15.116Z,6.30
2017-11-14T10:20:42.625Z,6.40
2017-11-14T10:23:10.948Z,6.50
2017-11-14T10:25:38.461Z,6.50
2017-11-14T10:28:06.157Z,6.40
2017-11-14T10:30:34.420Z,6.30
2017-11-14T10:33:02.708Z,6.40
2017-11-14T10:35:31.053Z,6.40
2017-11-14T10:38:00.091Z,6.60
2017-11-14T10:40:27.597Z,6.60
2017-11-14T10:42:55.116Z,6.60
2017-11-14T10:45:22.678Z,6.70
2017-11-14T10:47:50.227Z,6.80
2017-11-14T10:50:17.788Z,6.80
2017-11-14T10:52:45.316Z,6.90
2017-11-14T10:55:13.592Z,7.00
2017-11-14T10:57:41.904Z,7.10
2017-11-14T11:00:09.399Z,7.00
2017-11-14T11:02:36.919Z,7.10
2017-11-14T11:05:04.880Z,7.10
2017-11-14T11:07:32.399Z,7.00
2017-11-14T11:09:59.905Z,7.00
2017-11-14T11:12:27.448Z,7.00
2017-11-14T11:14:54.954Z,6.90
2017-11-14T11:17:22.460Z,6.90
2017-11-14T11:19:49.980Z,6.80
2017-11-14T11:22:17.488Z,6.70
2017-11-14T11:24:45.009Z,6.70
2017-11-14T11:27:12.520Z,6.80
2017-11-14T11:29:40.036Z,6.80
2017-11-14T11:32:08.307Z,6.90
2017-11-14T11:34:36.591Z,7.00
2017-11-14T11:37:04.864Z,7.10
2017-11-14T11:39:33.152Z,7.10
2017-11-14T11:42:01.421Z,7.10
2017-11-14T11:44:29.715Z,7.20
2017-11-14T11:46:57.231Z,7.20
2017-11-14T11:49:24.748Z,7.30
2017-11-14T11:51:52.256Z,7.30
2017-11-14T11:54:20.550Z,7.30
2017-11-14T11:56:48.062Z,7.30
2017-11-14T11:59:15.580Z,7.40
2017-11-14T12:01:43.084Z,7.40
2017-11-14T12:04:10.605Z,7.50
2017-11-14T12:06:38.112Z,7.40
2017-11-14T12:09:05.656Z,7.30
2017-11-14T12:11:33.183Z,7.30
2017-11-14T12:14:00.684Z,7.30
2017-11-14T12:16:28.212Z,7.20
2017-11-14T12:18:55.716Z,7.10
2017-11-14T12:21:23.999Z,7.00
2017-11-14T12:23:52.274Z,7.00
2017-11-14T12:26:20.571Z,7.00
2017-11-14T12:28:48.081Z,6.90
2017-11-14T12:31:15.603Z,7.10
2017-11-14T12:33:43.111Z,7.10
2017-11-14T12:36:10.633Z,7.10
2017-11-14T12:38:38.140Z,7.30
2017-11-14T12:41:06.431Z,7.30
2017-11-14T12:43:33.936Z,7.30
2017-11-14T12:46:01.464Z,7.30
2017-11-14T12:48:28.972Z,7.40
2017-11-14T12:50:56.498Z,7.30
2017-11-14T12:53:23.999Z,7.30
2017-11-14T12:55:52.284Z,7.20
2017-11-14T12:58:20.548Z,7.10
2017-11-14T13:00:48.836Z,6.90
2017-11-14T13:03:17.111Z,6.70
2017-11-14T13:05:45.402Z,6.70
2017-11-14T13:08:12.926Z,6.70
2017-11-14T13:10:40.447Z,6.90
2017-11-14T13:13:07.956Z,6.80
2017-11-14T13:15:36.226Z,7.00
2017-11-14T13:18:04.516Z,7.10
2017-11-14T13:20:32.783Z,7.20
2017-11-14T13:23:01.072Z,7.20
2017-11-14T13:25:28.597Z,7.20
2017-11-14T13:27:56.121Z,7.20
2017-11-14T13:30:23.628Z,7.20
2017-11-14T13:32:51.971Z,7.10
2017-11-14T13:35:19.479Z,7.10
2017-11-14T13:37:47.763Z,7.00
2017-11-14T13:40:15.264Z,7.00
2017-11-14T13:42:42.785Z,7.10
2017-11-14T13:45:10.287Z,7.20
2017-11-14T13:47:37.814Z,7.20
2017-11-14T13:50:05.332Z,7.20
2017-11-14T13:52:33.620Z,7.10
2017-11-14T13:55:01.892Z,7.10
2017-11-14T13:57:30.189Z,7.10
2017-11-14T13:59:57.696Z,7.00
2017-11-14T14:02:25.260Z,6.90
2017-11-14T14:04:52.768Z,6.90
2017-11-14T14:07:20.274Z,6.90
2017-11-14T14:09:47.792Z,6.90
2017-11-14T14:12:15.311Z,6.90
2017-11-14T14:14:43.595Z,7.00
2017-11-14T14:17:11.860Z,6.90
2017-11-14T14:19:40.148Z,6.90
2017-11-14T14:22:08.424Z,7.00
2017-11-14T14:24:36.716Z,7.00
2017-11-14T14:27:04.240Z,7.00
2017-11-14T14:29:31.764Z,7.00
2017-11-14T14:31:59.268Z,7.00
2017-11-14T14:34:27.556Z,7.00
2017-11-14T14:36:55.064Z,7.00
2017-11-14T14:39:22.583Z,7.00
2017-11-14T14:41:50.091Z,6.90
2017-11-14T14:44:17.611Z,6.90
2017-11-14T14:46:45.116Z,6.90
2017-11-14T14:49:12.636Z,6.90
2017-11-14T14:51:40.151Z,6.90
2017-11-14T14:54:08.436Z,6.90
2017-11-14T14:56:35.935Z,6.90
2017-11-14T14:59:03.451Z,6.90
2017-11-14T15:01:30.957Z,6.90
2017-11-14T15:03:58.488Z,6.90
2017-11-14T15:06:25.996Z,6.80
2017-11-14T15:08:53.533Z,6.80
2017-11-14T15:11:21.036Z,6.80
2017-11-14T15:13:49.311Z,6.70
2017-11-14T15:16:16.843Z,6.70
2017-11-14T15:18:44.344Z,6.70
2017-11-14T15:21:11.859Z,6.70
2017-11-14T15:23:39.360Z,6.60
2017-11-14T15:26:06.903Z,6.60
2017-11-14T15:28:35.164Z,6.60
2017-11-14T15:31:03.455Z,6.60
2017-11-14T15:33:31.719Z,6.60
2017-11-14T15:36:00.012Z,6.60
2017-11-14T15:38:27.520Z,6.60
2017-11-14T15:40:55.048Z,6.60
2017-11-14T15:43:22.556Z,6.50
2017-11-14T15:45:50.075Z,6.50
2017-11-14T15:48:17.588Z,6.40
2017-11-14T15:50:46.090Z,6.20
2017-11-14T15:53:13.603Z,6.10
2017-11-14T15:55:41.149Z,6.10
2017-11-14T15:58:08.669Z,6.00
2017-11-14T16:00:36.179Z,6.10
2017-11-14T16:03:03.726Z,6.10
2017-11-14T16:05:31.224Z,6.10
2017-11-14T16:07:59.512Z,6.00
2017-11-14T16:10:27.020Z,6.00
2017-11-14T16:12:54.553Z,6.00
2017-11-14T16:15:22.063Z,5.90
2017-11-14T16:17:50.360Z,5.80
2017-11-14T16:20:17.864Z,5.80
2017-11-14T16:22:45.494Z,5.70
2017-11-14T16:25:12.992Z,5.60
2017-11-14T16:27:40.507Z,5.50
2017-11-14T16:30:08.014Z,5.50
2017-11-14T16:32:35.541Z,5.50
2017-11-14T16:35:03.040Z,5.40
2017-11-14T16:37:30.561Z,5.40
2017-11-14T16:39:58.060Z,5.30
2017-11-14T16:42:26.357Z,5.20
2017-11-14T16:44:53.924Z,5.10
2017-11-14T16:47:22.144Z,5.10
2017-11-14T16:49:49.648Z,5.10
2017-11-14T16:52:17.175Z,5.10
2017-11-14T16:54:44.681Z,5.10
2017-11-14T16:57:12.240Z,5.00
2017-11-14T16:59:39.743Z,5.00
2017-11-14T17:02:07.260Z,5.00
2017-11-14T17:04:34.764Z,4.90
2017-11-14T17:07:02.375Z,4.90
2017-11-14T17:09:29.883Z,4.90
2017-11-14T17:11:57.399Z,4.80
2017-11-14T17:14:24.932Z,4.80
2017-11-14T17:16:52.508Z,4.80
2017-11-14T17:19:20.008Z,4.70
2017-11-14T17:21:47.532Z,4.70
2017-11-14T17:24:15.046Z,4.70
2017-11-14T17:26:43.337Z,4.60
2017-11-14T17:29:10.847Z,4.60
2017-11-14T17:31:38.380Z,4.60
2017-11-14T17:34:05.897Z,4.40
2017-11-14T17:36:34.188Z,4.30
2017-11-14T17:39:01.688Z,4.30
2017-11-14T17:41:29.312Z,4.20
2017-11-14T17:43:56.910Z,4.10
2017-11-14T17:46:24.535Z,4.00
2017-11-14T17:48:52.961Z,4.00
2017-11-14T17:51:20.483Z,4.00
2017-11-14T17:53:48.012Z,4.00
2017-11-14T17:56:16.507Z,4.00
2017-11-14T17:58:44.064Z,4.00
2017-11-14T18:01:11.577Z,4.00
2017-11-14T18:03:39.868Z,3.90
2017-11-14T18:06:07.393Z,3.90
2017-11-14T18:08:34.912Z,3.90
2017-11-14T18:11:02.782Z,3.90
2017-11-14T18:13:30.304Z,3.80
2017-11-14T18:15:57.808Z,3.90
2017-11-14T18:18:25.356Z,3.80
2017-11-14T18:20:52.929Z,3.80
2017-11-14T18:23:20.479Z,3.80
2017-11-14T18:25:47.988Z,3.80
2017-11-14T18:28:15.504Z,3.70
2017-11-14T18:30:43.011Z,3.70
2017-11-14T18:33:11.532Z,3.60
2017-11-14T18:35:39.040Z,3.60
2017-11-14T18:38:06.564Z,3.60
2017-11-14T18:40:34.639Z,3.60
2017-11-14T18:43:02.177Z,3.60
2017-11-14T18:45:29.680Z,3.70
2017-11-14T18:47:57.195Z,3.70
2017-11-14T18:50:24.700Z,3.70
2017-11-14T18:52:52.229Z,3.60
2017-11-14T18:55:19.780Z,3.70
2017-11-14T18:57:47.281Z,3.60
2017-11-14T19:00:16.498Z,3.60
2017-11-14T19:02:44.768Z,3.60
2017-11-14T19:05:12.361Z,3.60
2017-11-14T19:07:39.864Z,3.60
2017-11-14T19:10:08.224Z,3.70
2017-11-14T19:12:35.732Z,3.70
2017-11-14T19:15:04.040Z,3.60
2017-11-14T19:17:31.547Z,3.60
2017-11-14T19:19:59.137Z,3.60
2017-11-14T19:22:27.319Z,3.60
2017-11-14T19:24:54.877Z,3.60
2017-11-14T19:27:22.380Z,3.60
2017-11-14T19:29:49.907Z,3.60
2017-11-14T19:32:17.415Z,3.50
2017-11-14T19:34:45.708Z,3.50
2017-11-14T19:37:13.981Z,3.50
2017-11-14T19:39:42.279Z,3.50
2017-11-14T19:42:09.792Z,3.50
2017-11-14T19:44:38.065Z,3.20
2017-11-14T19:47:05.589Z,3.20
2017-11-14T19:49:33.142Z,3.30
2017-11-14T19:52:00.795Z,3.30
2017-11-14T19:54:28.379Z,3.30
2017-11-14T19:56:56.016Z,3.30
2017-11-14T19:59:23.525Z,3.30
2017-11-14T20:01:51.059Z,3.30
2017-11-14T20:04:18.567Z,3.10
2017-11-14T20:06:46.848Z,3.20
2017-11-14T20:09:15.443Z,3.10
2017-11-14T20:11:43.016Z,3.10
2017-11-14T20:14:10.536Z,3.10
2017-11-14T20:16:38.850Z,3.10
2017-11-14T20:19:06.397Z,3.10
2017-11-14T20:21:33.936Z,3.10
2017-11-14T20:24:02.208Z,3.00
2017-11-14T20:26:30.503Z,3.00
2017-11-14T20:28:58.008Z,2.90
2017-11-14T20:31:25.528Z,3.00
2017-11-14T20:33:53.035Z,2.90
2017-11-14T20:36:20.554Z,2.90
2017-11-14T20:38:48.076Z,2.90
2017-11-14T20:41:15.620Z,2.90
2017-11-14T20:43:43.136Z,2.90
2017-11-14T20:46:10.655Z,2.90
2017-11-14T20:48:39.026Z,2.90
2017-11-14T20:51:07.330Z,2.90
2017-11-14T20:53:34.851Z,2.90
2017-11-14T20:56:02.364Z,3.00
2017-11-14T20:58:29.885Z,3.00
2017-11-14T21:00:59.331Z,3.00
2017-11-14T21:03:26.847Z,3.00
2017-11-14T21:05:55.120Z,2.90
2017-11-14T21:08:23.400Z,2.90
2017-11-14T21:10:50.924Z,2.90
2017-11-14T21:13:18.452Z,2.80
2017-11-14T21:15:45.969Z,2.80
2017-11-14T21:18:14.262Z,2.80
2017-11-14T21:20:41.768Z,2.80
2017-11-14T21:23:10.806Z,2.90
2017-11-14T21:25:38.308Z,2.80
2017-11-14T21:28:05.837Z,2.90
2017-11-14T21:30:33.340Z,2.90
2017-11-14T21:33:00.890Z,2.90
2017-11-14T21:35:28.400Z,2.90
2017-11-14T21:37:55.899Z,2.90
2017-11-14T21:40:23.436Z,2.90
2017-11-14T21:42:50.948Z,2.90
2017-11-14T21:45:18.475Z,2.90
2017-11-14T21:47:45.985Z,2.90
2017-11-14T21:50:14.276Z,2.90
2017-11-14T21:52:41.780Z,2.90
2017-11-14T21:55:09.300Z,2.90
2017-11-14T21:57:36.799Z,2.90
2017-11-14T22:00:04.418Z,2.90
2017-11-14T22:02:31.919Z,3.00
2017-11-14T22:04:59.536Z,3.00
2017-11-14T22:07:27.048Z,3.00
2017-11-14T22:09:55.348Z,3.00
2017-11-14T22:12:22.860Z,3.00
2017-11-14T22:14:50.381Z,3.00
2017-11-14T22:17:17.883Z,3.00
2017-11-14T22:19:45.404Z,3.10
2017-11-14T22:22:12.912Z,3.10
2017-11-14T22:24:40.436Z,3.10
2017-11-14T22:27:07.934Z,3.10
2017-11-14T22:29:36.227Z,3.10
2017-11-14T22:32:04.495Z,3.10
2017-11-14T22:34:32.783Z,3.10
2017-11-14T22:37:00.300Z,3.00
2017-11-14T22:39:27.834Z,3.00
2017-11-14T22:41:55.340Z,2.90
2017-11-14T22:44:23.632Z,2.90
2017-11-14T22:46:51.156Z,2.90
2017-11-14T22:49:18.661Z,2.90
2017-11-14T22:51:46.184Z,3.00
2017-11-14T22:54:14.864Z,2.90
2017-11-14T22:56:42.384Z,2.80
2017-11-14T22:59:10.105Z,2.90
2017-11-14T23:01:37.637Z,2.90
2017-11-14T23:04:06.668Z,3.00
2017-11-14T23:06:34.740Z,3.00
2017-11-14T23:09:02.724Z,3.00
2017-11-14T23:11:30.297Z,3.10
2017-11-14T23:13:57.805Z,3.00
2017-11-14T23:16:26.087Z,3.00
2017-11-14T23:18:54.354Z,3.10
2017-11-14T23:21:22.639Z,3.10
2017-11-14T23:23:50.912Z,3.10
2017-11-14T23:26:19.295Z,3.10
2017-11-14T23:28:47.584Z,3.10
2017-11-14T23:31:15.121Z,3.10
2017-11-14T23:33:43.392Z,3.00
2017-11-14T23:36:11.659Z,3.00
2017-11-14T23:38:39.588Z,3.00
2017-11-14T23:41:07.104Z,3.00
2017-11-14T23:43:35.396Z,3.00
2017-11-14T23:46:02.907Z,3.00
2017-11-14T23:48:31.256Z,2.90
2017-11-14T23:50:58.788Z,3.00
2017-11-14T23:53:26.584Z,2.90
2017-11-14T23:55:54.128Z,2.80
2017-11-14T23:58:21.656Z,2.60
